Terminal Aerodrome Forecast
Issued by NWS State College, PA

Home | Current Version | Previous Version | Text Only | Print | Product List | Glossary On
Versions: 1 2 3 4 5 6 7 8 9 10 11 12 13 14 15 16 17 18 19 20 21 22 23 24 25 26 27 28 29 30 31 32 33 34 35 36 37 38
000
FTUS41 KCTP 190535
TAFMDT
TAF
KMDT 190535Z 1906/2006 VRB05KT P6SM SCT009 BKN040
     FM190800 28005KT 5SM BR SCT035
     FM191000 30004KT 2SM BR BKN025
     FM191300 30007KT P6SM SCT040=

USA.gov is the U.S. government's official web portal to all federal, state and local government web resources and services.